Bookmark and Share
Track history (hours):
 

Sovereign Star

More information available from US FCC via Universal Licensing System and Coast Guard Vessel Documentation Center.

Last reported at 2013-Nov-16 19:34 UTC. Time now 2014-Apr-20 03:19 UTC.
Position N 41°30' W 070°55'.
Warning: this ship's position is months out of date.

Length 19 m.

Type: Ship. MMSI: 367069720.

NotesDate/timePositionNaut miles runAvg speedWind from/ knotsBaromVisibWave heightAir tempDewpointWater temp
2013-Nov-16 19:34N 41°30' W 070°55'8 7.8
2013-Nov-16 18:34N 41°24' W 071°01'10 7.9
2013-Nov-16 17:16N 41°14' W 071°07'6 8.3
2013-Nov-16 16:34N 41°10' W 071°12'7 7.1
2013-Nov-16 15:32N 41°06' W 071°20'3 2.7
2013-Nov-16 14:34N 41°03' W 071°20'0 0.5
2013-Nov-16 13:34N 41°03' W 071°20'0 0.0
2013-Nov-16 12:33N 41°03' W 071°20'0 0.3
2013-Nov-16 11:33N 41°03' W 071°19'0 0.2
2013-Nov-16 10:33N 41°03' W 071°19'0 0.4
2013-Nov-16 09:33N 41°03' W 071°20'0 0.1
2013-Nov-16 08:33N 41°03' W 071°20'0 0.4
2013-Nov-16 07:33N 41°03' W 071°19'0 0.4
2013-Nov-16 06:32N 41°03' W 071°20'0 0.1
2013-Nov-16 05:33N 41°03' W 071°20'0 0.3
2013-Nov-16 04:29N 41°03' W 071°19'0 0.4
2013-Nov-16 03:33N 41°03' W 071°20'0 0.1
2013-Nov-16 02:33N 41°03' W 071°20'0 0.3
2013-Nov-16 01:32N 41°03' W 071°20'1 0.5
2013-Nov-16 00:33N 41°03' W 071°19'1 0.7
2013-Nov-15 23:33N 41°03' W 071°20'0 0.4
2013-Nov-15 22:33N 41°03' W 071°20'1 0.6
2013-Nov-15 21:33N 41°03' W 071°19'0 0.2
2013-Nov-15 20:30N 41°03' W 071°20'10 3.3
2013-Nov-15 17:33N 41°12' W 071°16'7 7.5
2013-Nov-15 16:33N 41°18' W 071°10'9 7.7
2013-Nov-15 15:21N 41°26' W 071°02'11 0.4
2013-Nov-14 14:20N 41°16' W 071°09'6 7.5
2013-Nov-14 13:33N 41°12' W 071°13'8 7.7
2013-Nov-14 12:33N 41°05' W 071°19'2 2.4
2013-Nov-14 11:33N 41°03' W 071°19'0 0.1
2013-Nov-14 10:31N 41°03' W 071°18'1 0.6
2013-Nov-14 09:33N 41°03' W 071°19'0 0.2
2013-Nov-14 08:33N 41°03' W 071°19'0 0.2
2013-Nov-14 07:33N 41°03' W 071°19'0 0.2
2013-Nov-14 06:33N 41°03' W 071°20'0 0.3
2013-Nov-14 05:33N 41°03' W 071°19'1 0.7
2013-Nov-14 04:33N 41°03' W 071°20'0 0.1
2013-Nov-14 03:33N 41°03' W 071°20'0 0.3
2013-Nov-14 02:31N 41°03' W 071°20'1 1.4
2013-Nov-14 01:33N 41°04' W 071°21'1 1.1
2013-Nov-14 00:33N 41°03' W 071°23'4 4.4
2013-Nov-13 23:33N 41°00' W 071°27'1 1.4
2013-Nov-13 22:33N 41°01' W 071°25'11 3.6
2013-Nov-13 19:33N 41°09' W 071°16'  

Dump ship's entire track history

sailing weather and tide predictions

Sovereign Star — WDC7330 — position and weather